Página principal
METAR-TAF:

METAR-TAF

Aeroportos :

Aeroporto Internacional de Cartum

Cartum, Sudão

latitude: 15-36N, longitude: 032-33E, altura: 382 m

Observação actual do tempo

O boletim foi feito há 30 minutos, às 22:30 UTC
Vento 7 kt de norte
Temperatura 20°C
Humidade 17%
Pressão 1015 hPa
Visibilidade 10 km ou mais
sem nuvens abaixo de 1500 metros e sem cumulonimbus

METAR: HSSS 202230Z 35007KT CAVOK 20/M06 Q1015 NOSIG

Hora: 02:00 (23:00 UTC)

Previsão

O boletim foi feito há 6 horas e 0 minutos, às 17:00 UTC
Previsão válida de 20 às 18 UTC a 21 às 24 UTC
Vento 8 kt de norte com rajadas de 18 kt
Visibilidade 10 km ou mais
sem nuvens abaixo de 1500 metros e sem cumulonimbus
Temporariamente
de 21 às 06 UTC a 21 às 09 UTC
Visibilidade: 6000 m

TAF: HSSS 201700Z 2018/2124 36008G18KT CAVOK TEMPO 2106/2109 6000 NSC

Observações e previsões do tempo de mais de 4000 aeroportos (mensagens METAR e TAF).

As estações disponíveis são os pontos amarelos e vermelhos sobre o mapa.

Mova o rato sobre o mapa para ver o nome da estação.

Depois clique no ponto para visualizar as observações e previsões meteorológicas.

Para alterar o mapa : clique nos botões verdes com uma cruz preta para aumentar o zoom; no botão verde com uma pitada de zoom; ou nas setas verdes para mapas adjacentes.


METAR-TAF: